createdAt,value
2018-12-03T00:00:17.203Z,17.2
2018-12-03T00:05:17.122Z,17.2
2018-12-03T00:10:17.115Z,17.3
2018-12-03T00:15:17.083Z,15.5
2018-12-03T00:20:17.425Z,15.2
2018-12-03T00:25:17.283Z,14.6
2018-12-03T00:30:17.100Z,14.9
2018-12-03T00:35:17.023Z,14.8
2018-12-03T00:40:17.072Z,13.8
2018-12-03T00:45:16.864Z,13.4
2018-12-03T00:50:17.674Z,9.4
2018-12-03T00:55:17.496Z,15.9
2018-12-03T01:00:17.426Z,15.7
2018-12-03T01:05:17.556Z,15.6
2018-12-03T01:10:17.655Z,16.9
2018-12-03T01:15:17.476Z,17.9
2018-12-03T01:20:17.493Z,19.7
2018-12-03T01:25:17.275Z,13.4
2018-12-03T01:30:17.152Z,20.3
2018-12-03T01:35:17.008Z,20.9
2018-12-03T01:40:17.023Z,21.2
2018-12-03T01:45:16.860Z,23.4
2018-12-03T01:50:17.988Z,14.3
2018-12-03T01:55:16.773Z,24.9
2018-12-03T02:00:17.662Z,19.1
2018-12-03T02:05:17.481Z,26.2
2018-12-03T02:10:17.468Z,16.5
2018-12-03T02:15:17.551Z,26
2018-12-03T02:20:17.713Z,15.1
2018-12-03T02:25:17.526Z,28
2018-12-03T02:30:17.304Z,16.3
2018-12-03T02:35:17.124Z,27.4
2018-12-03T02:40:17.255Z,26.8
2018-12-03T02:45:17.113Z,24.2
2018-12-03T02:50:16.925Z,27.1
2018-12-03T02:55:16.760Z,25.8
2018-12-03T03:00:17.600Z,26.5
2018-12-03T03:05:17.519Z,25.2
2018-12-03T03:10:17.524Z,25.6
2018-12-03T03:15:17.317Z,17.4
2018-12-03T03:20:17.342Z,25.9
2018-12-03T03:25:17.159Z,27.4
2018-12-03T03:30:16.981Z,26.6
2018-12-03T03:35:16.811Z,25.2
2018-12-03T03:40:16.824Z,25
2018-12-03T03:45:17.755Z,26.9
2018-12-03T03:50:17.763Z,25
2018-12-03T03:55:17.599Z,12
2018-12-03T04:00:17.403Z,24.1
2018-12-03T04:05:17.175Z,12.3
2018-12-03T04:10:17.532Z,25.3
2018-12-03T04:15:17.349Z,25.3
2018-12-03T04:20:17.708Z,27.1
2018-12-03T04:25:17.511Z,25.3
2018-12-03T04:30:17.338Z,24.5
2018-12-03T04:35:17.124Z,17.3
2018-12-03T04:40:17.232Z,25.8
2018-12-03T04:45:17.035Z,24.3
2018-12-03T04:50:16.859Z,25.6
2018-12-03T04:55:17.657Z,18.3
2018-12-03T05:00:17.482Z,24.1
2018-12-03T05:05:17.268Z,16.5
2018-12-03T05:10:17.272Z,24.7
2018-12-03T05:15:17.081Z,23.5
2018-12-03T05:20:17.091Z,17.4
2018-12-03T05:25:19.845Z,23.9
2018-12-03T05:30:17.679Z,23.5
2018-12-03T05:35:17.564Z,12.8
2018-12-03T05:40:17.616Z,23.4
2018-12-03T05:45:17.431Z,21.1
2018-12-03T05:50:17.267Z,23.4
2018-12-03T05:55:17.101Z,23.4
2018-12-03T06:00:16.949Z,24.2
2018-12-03T06:05:16.748Z,14.2
2018-12-03T06:10:16.748Z,24.6
2018-12-03T06:15:17.684Z,23.7
2018-12-03T06:20:17.824Z,23.2
2018-12-03T06:25:18.003Z,14.4
2018-12-03T06:30:16.815Z,21.8
2018-12-03T06:35:17.615Z,14.2
2018-12-03T06:40:17.663Z,23.5
2018-12-03T06:45:17.491Z,23.1
2018-12-03T06:50:17.277Z,20.9
2018-12-03T06:55:17.183Z,24.2
2018-12-03T07:00:16.979Z,13.2
2018-12-03T07:05:16.802Z,20.3
2018-12-03T07:10:16.790Z,13.3
2018-12-03T07:15:17.863Z,18
2018-12-03T07:20:16.848Z,19
2018-12-03T07:25:17.860Z,17.6
2018-12-03T07:30:17.668Z,17.5
2018-12-03T07:35:18.090Z,18.8
2018-12-03T07:40:17.082Z,13.4
2018-12-03T07:45:16.899Z,19.5
2018-12-03T07:50:17.777Z,11.1
2018-12-03T07:55:17.584Z,17.9
2018-12-03T08:00:17.412Z,16
2018-12-03T08:05:17.517Z,15.8
2018-12-03T08:10:17.907Z,15
2018-12-03T08:15:16.739Z,13.8
2018-12-03T08:20:16.732Z,11.4
2018-12-03T08:25:17.657Z,7.2
2018-12-03T08:30:17.463Z,11.1
2018-12-03T08:35:17.389Z,10.6
2018-12-03T08:40:17.375Z,6.2
2018-12-03T08:45:17.516Z,9.6
2018-12-03T08:50:17.594Z,5
2018-12-03T08:55:17.421Z,8.2
2018-12-03T09:00:18.463Z,5.6
2018-12-03T09:05:17.694Z,7.7
2018-12-03T09:10:17.668Z,6.5
2018-12-03T09:15:17.467Z,6.4
2018-12-03T09:20:17.568Z,5
2018-12-03T09:25:18.392Z,6.2
2018-12-03T09:30:17.224Z,4.4
2018-12-03T09:35:17.407Z,5.3
2018-12-03T09:40:17.607Z,6.3
2018-12-03T09:45:17.681Z,5.2
2018-12-03T09:50:17.657Z,5.6
2018-12-03T09:55:17.607Z,5.8
2018-12-03T10:00:17.797Z,5.8
2018-12-03T10:05:17.761Z,5.8
2018-12-03T10:10:17.104Z,3.2
2018-12-03T10:15:17.019Z,5.2
2018-12-03T10:20:17.264Z,6.9
2018-12-03T10:25:17.195Z,4.7
2018-12-03T10:30:16.977Z,7.5
2018-12-03T10:35:17.087Z,4.8
2018-12-03T10:40:17.512Z,4.4
2018-12-03T10:45:17.444Z,4.8
2018-12-03T10:50:22.507Z,4.7
2018-12-03T10:55:17.356Z,4.8
2018-12-03T11:00:17.295Z,5
2018-12-03T11:05:17.396Z,5.1
2018-12-03T11:10:17.764Z,4.3
2018-12-03T11:15:17.910Z,4.8
2018-12-03T11:20:16.984Z,1.8
2018-12-03T11:25:17.091Z,4.8
2018-12-03T11:30:17.063Z,3.1
2018-12-03T11:35:17.115Z,4.2
2018-12-03T11:40:17.408Z,1.6
2018-12-03T11:45:17.523Z,4.7
2018-12-03T11:50:17.482Z,4.1
2018-12-03T11:55:17.539Z,5.1
2018-12-03T12:00:17.440Z,4.4
2018-12-03T12:05:17.518Z,3.3
2018-12-03T12:10:17.876Z,4.6
2018-12-03T12:15:17.879Z,4.8
2018-12-03T12:20:17.119Z,2.8
2018-12-03T12:25:17.067Z,4.5
2018-12-03T12:30:16.999Z,4.7
2018-12-03T12:35:16.855Z,4.6
2018-12-03T12:40:17.147Z,4.6
2018-12-03T12:45:17.065Z,2.6
2018-12-03T12:50:16.991Z,4.6
2018-12-03T12:55:17.244Z,2.6
2018-12-03T13:00:17.394Z,4.1
2018-12-03T13:05:17.466Z,3.6
2018-12-03T13:10:17.858Z,4.2
2018-12-03T13:15:17.945Z,4.6
2018-12-03T13:20:17.063Z,4.5
2018-12-03T13:25:17.047Z,4.7
2018-12-03T13:30:17.203Z,4.6
2018-12-03T13:35:17.112Z,4.1
2018-12-03T13:40:17.335Z,5
2018-12-03T13:45:17.507Z,4.7
2018-12-03T13:50:17.580Z,3.5
2018-12-03T13:55:17.503Z,4.4
2018-12-03T14:00:17.456Z,4.5
2018-12-03T14:05:17.271Z,3.1
2018-12-03T14:10:17.419Z,4.3
2018-12-03T14:15:17.433Z,5.3
2018-12-03T14:20:17.608Z,2.6
2018-12-03T14:25:17.805Z,4.3
2018-12-03T14:30:17.743Z,2.8
2018-12-03T14:35:17.863Z,5
2018-12-03T14:40:16.944Z,4.9
2018-12-03T14:45:17.056Z,4.8
2018-12-03T14:50:17.316Z,4.2
2018-12-03T14:55:17.584Z,3
2018-12-03T15:00:17.538Z,4.4
2018-12-03T15:05:17.500Z,5
2018-12-03T15:10:17.647Z,3.4
2018-12-03T15:15:17.764Z,4.7
2018-12-03T15:20:17.031Z,4.8
2018-12-03T15:25:16.927Z,5.3
2018-12-03T15:30:17.067Z,4.3
2018-12-03T15:35:17.088Z,5
2018-12-03T15:40:17.287Z,5.8
2018-12-03T15:45:17.219Z,4.7
2018-12-03T15:50:17.404Z,4.5
2018-12-03T15:55:17.368Z,4.2
2018-12-03T16:00:17.291Z,2.3
2018-12-03T16:05:17.403Z,4.8
2018-12-03T16:10:17.491Z,4.2
2018-12-03T16:15:17.643Z,4.5
2018-12-03T16:20:17.711Z,1.9
2018-12-03T16:25:17.785Z,5.4
2018-12-03T16:30:17.611Z,4.7
2018-12-03T16:35:17.552Z,5.5
2018-12-03T16:40:17.859Z,6
2018-12-03T16:45:17.842Z,6
2018-12-03T16:50:17.931Z,5.9
2018-12-03T16:55:16.883Z,6.7
2018-12-03T17:00:17.804Z,6
2018-12-03T17:05:17.968Z,7.7
2018-12-03T17:10:17.112Z,7.8
2018-12-03T17:15:17.029Z,5.6
2018-12-03T17:20:17.306Z,8.6
2018-12-03T17:25:17.252Z,6
2018-12-03T17:30:17.476Z,9.1
2018-12-03T17:35:17.692Z,9
2018-12-03T17:40:17.769Z,4.3
2018-12-03T17:45:17.655Z,10.2
2018-12-03T17:50:17.627Z,6
2018-12-03T17:55:17.716Z,10.1
2018-12-03T18:00:17.651Z,7.7
2018-12-03T18:05:17.743Z,9.8
2018-12-03T18:10:17.003Z,9.9
2018-12-03T18:15:17.040Z,6.2
2018-12-03T18:20:17.392Z,9.6
2018-12-03T18:25:17.455Z,9.8
2018-12-03T18:30:17.627Z,9.7
2018-12-03T18:35:17.757Z,5.9
2018-12-03T18:40:16.983Z,9.1
2018-12-03T18:45:16.843Z,7.2
2018-12-03T18:50:17.942Z,9.9
2018-12-03T18:55:17.032Z,7.6
2018-12-03T19:00:17.211Z,9.8
2018-12-03T19:05:17.372Z,9.6
2018-12-03T19:10:17.515Z,10
2018-12-03T19:15:17.320Z,5.5
2018-12-03T19:20:17.512Z,10.3
2018-12-03T19:25:17.511Z,10
2018-12-03T19:30:17.375Z,9.7
2018-12-03T19:35:17.425Z,8.2
2018-12-03T19:40:17.753Z,10.2
2018-12-03T19:45:17.576Z,9.9
2018-12-03T19:50:22.523Z,9.8
2018-12-03T19:55:17.604Z,8.1
2018-12-03T20:00:17.714Z,10
2018-12-03T20:05:17.723Z,10.2
2018-12-03T20:10:16.873Z,9.3
2018-12-03T20:15:18.004Z,8.3
2018-12-03T20:20:17.170Z,9
2018-12-03T20:25:17.068Z,9.6
2018-12-03T20:30:17.082Z,12.7
2018-12-03T20:35:17.595Z,11.6
2018-12-03T20:40:18.061Z,10.9
2018-12-03T20:45:16.932Z,6
2018-12-03T20:50:16.843Z,10.9
2018-12-03T20:55:17.808Z,9.4
2018-12-03T21:00:17.947Z,10.5
2018-12-03T21:05:16.925Z,11.7
2018-12-03T21:10:17.457Z,12.3
2018-12-03T21:15:17.447Z,13
2018-12-03T21:20:17.500Z,6.3
2018-12-03T21:25:17.488Z,7.5
2018-12-03T21:30:17.527Z,5.9
2018-12-03T21:35:17.487Z,3.3
2018-12-03T21:40:17.844Z,4.4
2018-12-03T21:45:17.733Z,4.1
2018-12-03T21:50:17.750Z,2.5
2018-12-03T21:55:17.640Z,3.8
2018-12-03T22:00:17.512Z,1.3
2018-12-03T22:05:17.724Z,2.9
2018-12-03T22:10:17.045Z,2.1
2018-12-03T22:15:17.074Z,1.2
2018-12-03T22:20:17.361Z,0.3
2018-12-03T22:25:17.488Z,1.8
2018-12-03T22:30:17.315Z,0.8
2018-12-03T22:35:17.209Z,1.5
2018-12-03T22:40:17.671Z,0.7
2018-12-03T22:45:17.871Z,1.8
2018-12-03T22:50:17.755Z,0.1
2018-12-03T22:55:17.644Z,0.5
2018-12-03T23:00:17.953Z,1.8
2018-12-03T23:05:16.900Z,1.8
2018-12-03T23:10:17.411Z,1
2018-12-03T23:15:17.597Z,1.7
2018-12-03T23:20:17.724Z,1.7
2018-12-03T23:25:17.552Z,1
2018-12-03T23:30:17.468Z,1.8
2018-12-03T23:35:17.488Z,0.1
2018-12-03T23:40:17.696Z,1.9
2018-12-03T23:45:17.755Z,1.9
2018-12-03T23:50:17.611Z,1.6
2018-12-03T23:55:17.757Z,1.4
